Time;durP1;ratioP1;P1;durP2;ratioP2;P2;SDS_P1;SDS_P2;PMS_P1;PMS_P2;Temp;Humidity;BMP_temperature;BMP_pressure;BME280_temperature;BME280_humidity;BME280_pressure;Samples;Min_cycle;Max_cycle;Signal;HPM_P1;HPM_P2
2022/01/11 00:01:45;;;;;;;34.97;17.98;;;3.10;99.90;;;;;;5031416;28;20056;-65
2022/01/11 00:04:14;;;;;;;42.08;17.67;;;3.10;99.90;;;;;;5032303;28;20033;-66
2022/01/11 00:06:45;;;;;;;36.30;18.27;;;3.00;99.90;;;;;;5031466;28;20061;-65
2022/01/11 00:11:54;;;;;;;35.55;17.83;;;3.00;99.90;;;;;;5029919;28;20044;-66
2022/01/11 00:14:20;;;;;;;31.88;16.33;;;2.90;99.90;;;;;;5031854;28;20021;-66
2022/01/11 00:16:46;;;;;;;34.30;16.55;;;2.90;99.90;;;;;;5031706;28;20106;-66
2022/01/11 00:19:13;;;;;;;32.70;17.02;;;2.90;99.90;;;;;;5047137;28;20029;-65
2022/01/11 00:21:46;;;;;;;33.67;17.48;;;2.90;99.90;;;;;;5031779;28;20030;-65
2022/01/11 00:24:33;;;;;;;31.60;17.58;;;2.90;99.90;;;;;;5031447;28;20053;-67
2022/01/11 00:27:09;;;;;;;38.95;17.42;;;2.90;99.90;;;;;;5031646;28;20025;-65
2022/01/11 00:29:40;;;;;;;38.47;17.88;;;2.90;99.90;;;;;;5032734;28;20037;-65
2022/01/11 00:32:11;;;;;;;37.78;18.08;;;2.80;99.90;;;;;;5031350;28;20623;-65
2022/01/11 00:34:51;;;;;;;34.78;16.92;;;2.80;99.90;;;;;;5034490;28;20080;-64
2022/01/11 00:37:19;;;;;;;34.13;17.60;;;2.80;99.90;;;;;;5030822;28;20485;-66
2022/01/11 00:39:46;;;;;;;37.22;17.27;;;2.80;99.90;;;;;;5030914;28;20029;-66
2022/01/11 00:42:16;;;;;;;35.40;17.67;;;2.80;99.90;;;;;;5031567;28;20477;-65
2022/01/11 00:44:42;;;;;;;35.83;17.27;;;2.80;99.90;;;;;;5032631;28;20481;-65
2022/01/11 00:47:08;;;;;;;34.40;17.40;;;2.70;99.90;;;;;;5030507;28;20033;-66
2022/01/11 00:49:34;;;;;;;34.45;17.38;;;2.70;99.90;;;;;;5047210;28;20049;-65
2022/01/11 00:52:01;;;;;;;39.40;18.08;;;2.70;99.90;;;;;;5030895;28;20033;-64
2022/01/11 00:54:27;;;;;;;33.50;16.83;;;2.70;99.90;;;;;;5031151;28;20057;-66
2022/01/11 00:56:53;;;;;;;35.75;17.30;;;2.70;99.90;;;;;;5046988;28;20426;-67
2022/01/11 00:59:19;;;;;;;34.95;17.33;;;2.70;99.90;;;;;;5045952;28;20081;-65
2022/01/11 01:01:44;;;;;;;36.58;17.20;;;2.70;99.90;;;;;;5025946;28;20062;-65
2022/01/11 01:04:10;;;;;;;31.75;16.83;;;2.70;99.90;;;;;;5025565;28;20040;-66
2022/01/11 01:06:39;;;;;;;32.75;16.63;;;2.70;99.90;;;;;;5047052;28;20033;-65
2022/01/11 01:09:05;;;;;;;36.13;17.83;;;2.70;99.90;;;;;;5043785;28;20021;-66
2022/01/11 01:11:31;;;;;;;34.47;18.80;;;2.70;99.90;;;;;;5031086;28;20022;-64
2022/01/11 01:13:57;;;;;;;34.33;17.35;;;2.80;99.90;;;;;;5030436;28;20025;-65
2022/01/11 01:16:23;;;;;;;31.63;16.40;;;2.80;99.90;;;;;;5031152;28;20021;-65
2022/01/11 01:18:50;;;;;;;37.30;17.17;;;2.80;99.90;;;;;;5029511;28;20832;-66
2022/01/11 01:21:16;;;;;;;34.83;16.92;;;2.80;99.90;;;;;;5030427;28;20639;-65
2022/01/11 01:23:42;;;;;;;35.05;17.17;;;2.90;99.90;;;;;;5030672;28;20120;-65
2022/01/11 01:26:07;;;;;;;32.35;16.92;;;2.90;99.90;;;;;;5045664;28;20192;-65
2022/01/11 01:28:33;;;;;;;25.58;14.68;;;2.80;99.90;;;;;;5044584;28;20021;-65
2022/01/11 01:31:01;;;;;;;34.03;17.65;;;2.90;99.90;;;;;;5050037;28;20072;-65
2022/01/11 01:33:32;;;;;;;28.15;15.18;;;2.90;99.90;;;;;;5030402;28;20040;-65
2022/01/11 01:36:02;;;;;;;32.75;16.23;;;2.90;99.90;;;;;;5030444;28;20489;-66
2022/01/11 01:38:29;;;;;;;39.42;16.00;;;2.90;99.90;;;;;;5029376;28;20033;-65
2022/01/11 01:41:03;;;;;;;31.13;15.73;;;3.00;99.90;;;;;;5046962;28;20037;-65
2022/01/11 01:43:29;;;;;;;28.95;15.63;;;3.00;99.90;;;;;;5030121;28;20033;-66
2022/01/11 01:45:58;;;;;;;32.58;15.95;;;3.00;99.90;;;;;;5030101;28;20021;-65
2022/01/11 01:48:24;;;;;;;34.22;16.50;;;3.00;99.90;;;;;;5029328;28;20033;-65
2022/01/11 01:50:51;;;;;;;31.50;15.55;;;3.00;99.90;;;;;;5030235;28;20017;-65
2022/01/11 01:53:17;;;;;;;34.33;16.45;;;3.00;99.90;;;;;;5029821;28;20053;-66
2022/01/11 01:55:46;;;;;;;33.65;16.63;;;3.00;99.90;;;;;;5030300;28;20508;-66
2022/01/11 01:58:11;;;;;;;29.60;15.52;;;3.00;99.90;;;;;;5034508;28;20034;-64
2022/01/11 02:00:42;;;;;;;34.05;15.88;;;3.00;99.90;;;;;;5033008;28;20375;-64
2022/01/11 02:03:12;;;;;;;36.03;16.02;;;3.00;99.90;;;;;;5029842;28;20026;-65
2022/01/11 02:05:40;;;;;;;31.90;15.70;;;3.00;99.90;;;;;;5030173;28;20026;-64
2022/01/11 02:08:07;;;;;;;31.35;15.68;;;2.90;99.90;;;;;;5028776;28;20025;-65
2022/01/11 02:10:33;;;;;;;32.92;16.40;;;2.90;99.90;;;;;;5029617;28;20021;-65
2022/01/11 02:13:00;;;;;;;30.33;15.73;;;2.80;99.90;;;;;;5037964;28;20037;-66
2022/01/11 02:15:27;;;;;;;34.88;16.90;;;2.80;99.90;;;;;;5029396;28;20068;-65
2022/01/11 02:17:52;;;;;;;38.70;16.20;;;2.70;99.90;;;;;;5029099;28;20060;-64
2022/01/11 02:20:18;;;;;;;30.25;15.60;;;2.70;99.90;;;;;;5044119;28;20069;-65
2022/01/11 02:22:44;;;;;;;33.92;15.30;;;2.70;99.90;;;;;;5028562;28;20026;-66
2022/01/11 02:25:10;;;;;;;29.00;15.60;;;2.70;99.90;;;;;;5045147;28;20557;-66
2022/01/11 02:27:36;;;;;;;38.00;16.02;;;2.70;99.90;;;;;;5032551;28;20030;-67
2022/01/11 02:30:03;;;;;;;32.58;15.75;;;2.60;99.90;;;;;;5032511;28;20378;-66
2022/01/11 02:32:29;;;;;;;36.75;16.23;;;2.60;99.90;;;;;;5033231;28;20174;-65
2022/01/11 02:34:54;;;;;;;31.60;14.50;;;2.60;99.90;;;;;;5034540;28;20053;-65
2022/01/11 02:37:20;;;;;;;34.88;15.15;;;2.60;99.90;;;;;;5028783;28;20122;-65
2022/01/11 02:39:47;;;;;;;37.70;15.77;;;2.60;99.90;;;;;;5029480;28;20030;-66
2022/01/11 02:42:12;;;;;;;37.63;14.80;;;2.60;99.90;;;;;;5029185;28;20037;-65
2022/01/11 02:44:38;;;;;;;37.42;15.48;;;2.60;99.90;;;;;;5045714;28;20033;-65
2022/01/11 02:47:05;;;;;;;38.65;16.25;;;2.60;99.90;;;;;;5028445;28;20119;-66
2022/01/11 02:49:30;;;;;;;33.63;16.05;;;2.50;99.90;;;;;;5029181;28;20160;-65
2022/01/11 02:51:56;;;;;;;34.40;16.33;;;2.50;99.90;;;;;;5048556;28;20052;-67
2022/01/11 02:54:23;;;;;;;34.85;15.80;;;2.40;99.90;;;;;;5035766;28;20036;-66
2022/01/11 02:56:49;;;;;;;30.98;14.25;;;2.30;99.90;;;;;;5035357;28;20029;-65
2022/01/11 02:59:14;;;;;;;39.70;16.27;;;2.30;99.90;;;;;;5036150;28;20429;-66
2022/01/11 03:01:40;;;;;;;34.63;16.20;;;2.30;99.90;;;;;;5035839;28;20043;-65
2022/01/11 03:04:06;;;;;;;33.72;15.80;;;2.30;99.90;;;;;;5043047;28;20110;-65
2022/01/11 03:06:31;;;;;;;30.17;14.70;;;2.20;99.90;;;;;;5033215;28;20486;-65
2022/01/11 03:08:57;;;;;;;39.60;16.48;;;2.20;99.90;;;;;;5032295;28;20061;-64
2022/01/11 03:11:25;;;;;;;34.03;16.23;;;2.20;99.90;;;;;;5045608;28;20022;-66
2022/01/11 03:13:50;;;;;;;36.30;15.88;;;2.10;99.90;;;;;;5035947;28;20578;-64
2022/01/11 03:16:17;;;;;;;40.47;15.90;;;2.10;99.90;;;;;;5036049;28;20029;-65
2022/01/11 03:18:44;;;;;;;31.27;14.70;;;2.00;99.90;;;;;;5035972;28;20362;-65
2022/01/11 03:21:10;;;;;;;40.00;16.17;;;2.00;99.90;;;;;;5038488;28;20095;-65
2022/01/11 03:23:37;;;;;;;29.33;15.27;;;2.00;99.90;;;;;;5046353;28;20026;-65
2022/01/11 03:26:03;;;;;;;33.53;16.27;;;2.00;99.90;;;;;;5043749;28;20072;-67
2022/01/11 03:28:30;;;;;;;34.67;16.80;;;2.00;99.90;;;;;;5038076;28;20045;-67
2022/01/11 03:30:56;;;;;;;37.13;14.77;;;2.00;99.90;;;;;;5035775;28;20033;-66
2022/01/11 03:33:22;;;;;;;42.78;16.33;;;2.00;99.90;;;;;;5053068;28;20056;-66
2022/01/11 03:35:48;;;;;;;31.15;14.82;;;2.10;99.90;;;;;;5044040;28;20033;-66
2022/01/11 03:38:15;;;;;;;36.75;15.20;;;2.10;99.90;;;;;;5037523;28;20029;-65
2022/01/11 03:40:42;;;;;;;33.97;15.10;;;2.10;99.90;;;;;;5035327;28;20026;-66
2022/01/11 03:43:09;;;;;;;32.60;15.45;;;2.10;99.90;;;;;;5036609;28;20030;-66
2022/01/11 03:45:35;;;;;;;36.20;16.17;;;2.20;99.90;;;;;;5035340;28;20025;-65
2022/01/11 03:48:03;;;;;;;32.22;15.52;;;2.20;99.90;;;;;;5034792;28;20041;-67
2022/01/11 03:50:30;;;;;;;32.78;15.00;;;2.20;99.90;;;;;;5035153;28;20550;-65
2022/01/11 03:53:17;;;;;;;29.85;14.70;;;2.20;99.90;;;;;;5035604;28;20469;-65
2022/01/11 03:56:21;;;;;;;32.45;15.35;;;2.20;99.90;;;;;;5015930;28;20037;-65
2022/01/11 03:58:31;;;;;;;30.50;13.82;;;2.20;99.90;;;;;;5035788;28;20409;-65
2022/01/11 04:00:57;;;;;;;32.38;14.50;;;2.20;99.90;;;;;;5051576;28;20025;-66
2022/01/11 04:03:24;;;;;;;29.98;14.20;;;2.20;99.90;;;;;;5034215;28;20076;-66
2022/01/11 04:05:50;;;;;;;31.48;14.18;;;2.20;99.90;;;;;;5038223;28;20120;-67
2022/01/11 04:08:15;;;;;;;26.85;13.70;;;2.20;99.90;;;;;;5048440;28;20129;-66
2022/01/11 04:10:41;;;;;;;30.90;13.77;;;2.20;99.90;;;;;;5031355;28;20025;-66
2022/01/11 04:13:07;;;;;;;26.98;13.15;;;2.20;99.90;;;;;;5031414;28;20017;-66
2022/01/11 04:15:33;;;;;;;23.23;12.73;;;2.20;99.90;;;;;;5031847;28;20073;-67
2022/01/11 04:17:58;;;;;;;23.40;13.57;;;2.20;99.90;;;;;;5032348;28;20049;-67
2022/01/11 04:20:24;;;;;;;28.50;14.85;;;2.30;99.90;;;;;;5032007;28;20030;-65
2022/01/11 04:22:50;;;;;;;27.92;14.23;;;2.30;99.90;;;;;;5031821;28;20032;-66
2022/01/11 04:25:17;;;;;;;26.42;14.50;;;2.30;99.90;;;;;;5032052;28;20037;-64
2022/01/11 04:27:43;;;;;;;25.02;13.73;;;2.30;99.90;;;;;;5030494;28;20081;-66
2022/01/11 04:30:09;;;;;;;26.98;14.57;;;2.30;99.90;;;;;;5031955;28;20025;-67
2022/01/11 04:32:35;;;;;;;29.08;13.70;;;2.30;99.90;;;;;;5051612;28;20040;-67
2022/01/11 04:35:02;;;;;;;27.98;14.73;;;2.30;99.90;;;;;;5041389;28;20383;-65
2022/01/11 04:37:28;;;;;;;26.42;14.35;;;2.30;99.90;;;;;;5032520;28;20501;-66
2022/01/11 04:39:53;;;;;;;28.73;13.90;;;2.30;99.90;;;;;;5031400;28;20080;-66
2022/01/11 04:42:19;;;;;;;31.88;14.15;;;2.30;99.90;;;;;;5031682;28;20362;-66
2022/01/11 04:44:45;;;;;;;23.83;12.40;;;2.30;99.90;;;;;;5038041;28;20087;-66
2022/01/11 04:47:11;;;;;;;26.20;13.30;;;2.30;99.90;;;;;;5031040;28;20025;-66
2022/01/11 04:49:36;;;;;;;27.73;14.07;;;2.30;99.90;;;;;;5030979;28;20025;-65
2022/01/11 04:52:03;;;;;;;27.42;14.70;;;2.40;99.90;;;;;;5048267;28;20041;-66
2022/01/11 04:54:28;;;;;;;29.50;14.65;;;2.40;99.90;;;;;;5031659;28;20022;-65
2022/01/11 04:56:54;;;;;;;34.47;16.77;;;2.40;99.90;;;;;;5030874;28;20033;-66
2022/01/11 04:59:20;;;;;;;35.42;15.43;;;2.40;99.90;;;;;;5030995;28;20473;-67
2022/01/11 05:01:45;;;;;;;37.08;17.23;;;2.40;99.90;;;;;;5030927;28;20033;-66
2022/01/11 05:04:13;;;;;;;39.17;16.70;;;2.40;99.90;;;;;;5030883;28;20038;-66
2022/01/11 05:06:38;;;;;;;32.28;16.00;;;2.40;99.90;;;;;;5031005;28;20520;-66
2022/01/11 05:09:04;;;;;;;36.70;17.40;;;2.40;99.90;;;;;;5030735;28;20022;-65
2022/01/11 05:11:30;;;;;;;38.35;18.17;;;2.30;99.90;;;;;;5030677;28;20035;-66
2022/01/11 05:13:55;;;;;;;36.22;16.67;;;2.30;99.90;;;;;;5030982;28;20030;-64
2022/01/11 05:16:21;;;;;;;35.85;17.58;;;2.40;99.90;;;;;;5031010;28;20477;-66
2022/01/11 05:18:47;;;;;;;41.97;17.70;;;2.40;99.90;;;;;;5030441;28;20128;-66
2022/01/11 05:21:12;;;;;;;34.53;16.77;;;2.40;99.90;;;;;;5048011;28;20038;-66
2022/01/11 05:23:38;;;;;;;40.42;18.05;;;2.40;99.90;;;;;;5031457;28;20120;-66
2022/01/11 05:26:04;;;;;;;37.10;16.38;;;2.40;99.90;;;;;;5031182;28;20028;-65
2022/01/11 05:28:30;;;;;;;40.97;17.73;;;2.40;99.90;;;;;;5044079;28;20602;-65
2022/01/11 05:30:56;;;;;;;32.42;17.00;;;2.40;99.90;;;;;;5051412;28;20075;-65
2022/01/11 05:33:21;;;;;;;44.20;17.88;;;2.40;99.90;;;;;;5040987;28;20037;-65
2022/01/11 05:35:47;;;;;;;31.10;16.30;;;2.40;99.90;;;;;;5031099;28;20072;-66
2022/01/11 05:38:14;;;;;;;38.78;17.90;;;2.40;99.90;;;;;;5030443;28;20041;-66
2022/01/11 05:40:39;;;;;;;46.55;16.65;;;2.50;99.90;;;;;;5030888;28;20563;-66
2022/01/11 05:45:33;;;;;;;33.58;16.83;;;2.50;99.90;;;;;;5018055;28;20053;-66
2022/01/11 05:48:00;;;;;;;39.03;18.13;;;2.50;99.90;;;;;;5025726;28;20033;-68
2022/01/11 05:50:26;;;;;;;33.83;16.63;;;2.50;99.90;;;;;;5012161;28;20025;-66
2022/01/11 05:52:52;;;;;;;36.78;15.88;;;2.50;99.90;;;;;;5011114;28;20026;-66
2022/01/11 05:55:19;;;;;;;42.53;17.83;;;2.50;99.90;;;;;;5011078;28;20113;-67
2022/01/11 05:57:45;;;;;;;34.78;16.10;;;2.50;99.90;;;;;;5010716;28;20161;-66
2022/01/11 06:00:16;;;;;;;36.38;16.80;;;2.50;99.90;;;;;;5011332;28;20037;-66
2022/01/11 06:02:46;;;;;;;33.28;16.10;;;2.50;99.90;;;;;;5010937;28;20034;-66
2022/01/11 06:05:13;;;;;;;34.10;16.25;;;2.50;99.90;;;;;;5011144;28;20030;-66
2022/01/11 06:07:39;;;;;;;34.65;16.75;;;2.50;99.90;;;;;;5010697;28;20401;-66
2022/01/11 06:10:06;;;;;;;35.03;17.27;;;2.50;99.90;;;;;;5009607;28;20026;-66
2022/01/11 06:12:31;;;;;;;40.83;17.67;;;2.50;99.90;;;;;;5010851;28;20053;-69
2022/01/11 06:14:57;;;;;;;38.95;17.48;;;2.50;99.90;;;;;;5004192;28;20220;-66
2022/01/11 06:17:22;;;;;;;38.22;16.50;;;2.50;99.90;;;;;;5009705;28;20029;-66
2022/01/11 06:19:48;;;;;;;36.63;17.90;;;2.50;99.90;;;;;;5010730;28;20030;-67
2022/01/11 06:22:14;;;;;;;38.15;17.00;;;2.50;99.90;;;;;;5011162;28;20470;-68
2022/01/11 06:24:39;;;;;;;36.33;17.20;;;2.50;99.90;;;;;;5010536;28;20482;-69
2022/01/11 06:27:05;;;;;;;38.78;17.88;;;2.60;99.90;;;;;;5009229;28;20036;-67
2022/01/11 06:29:31;;;;;;;35.22;16.45;;;2.50;99.90;;;;;;5010286;28;20036;-67
2022/01/11 06:31:57;;;;;;;33.45;16.38;;;2.50;99.90;;;;;;5010808;28;20018;-67
2022/01/11 06:34:22;;;;;;;39.65;16.73;;;2.50;99.90;;;;;;5010525;28;20018;-67
2022/01/11 06:36:48;;;;;;;36.72;16.83;;;2.50;99.90;;;;;;5010910;28;20026;-68
2022/01/11 06:39:14;;;;;;;38.13;17.63;;;2.50;99.90;;;;;;5010212;28;20445;-70
2022/01/11 06:41:39;;;;;;;35.45;18.15;;;2.60;99.90;;;;;;5010319;28;20126;-70
2022/01/11 06:44:06;;;;;;;39.25;18.17;;;2.50;99.90;;;;;;5002739;28;20402;-66
2022/01/11 06:46:32;;;;;;;41.35;19.77;;;2.50;99.90;;;;;;5009899;28;20029;-66
2022/01/11 06:49:00;;;;;;;39.00;18.25;;;2.50;99.90;;;;;;5010060;28;20591;-66
2022/01/11 06:51:26;;;;;;;38.65;18.20;;;2.40;99.90;;;;;;5010452;28;20048;-66
2022/01/11 06:53:51;;;;;;;41.30;18.10;;;2.40;99.90;;;;;;5010166;28;20032;-67
2022/01/11 06:56:18;;;;;;;39.80;18.80;;;2.40;99.90;;;;;;5010475;28;20511;-67
2022/01/11 06:58:44;;;;;;;39.92;16.65;;;2.30;99.90;;;;;;5009872;28;20038;-66
2022/01/11 07:01:10;;;;;;;38.15;17.23;;;2.40;99.90;;;;;;5010914;28;20037;-66
2022/01/11 07:03:36;;;;;;;35.22;17.40;;;2.40;99.90;;;;;;5010143;28;20037;-67
2022/01/11 07:06:02;;;;;;;36.17;17.05;;;2.40;99.90;;;;;;5010278;28;20026;-67
2022/01/11 07:08:28;;;;;;;36.15;17.17;;;2.40;99.90;;;;;;5009714;28;20033;-67
2022/01/11 07:10:54;;;;;;;48.35;20.60;;;2.40;99.90;;;;;;5010521;28;20026;-66
2022/01/11 07:13:20;;;;;;;39.83;18.45;;;2.40;99.90;;;;;;5008577;28;20121;-66
2022/01/11 07:15:46;;;;;;;44.67;18.15;;;2.40;99.90;;;;;;5003695;28;20032;-66
2022/01/11 07:18:12;;;;;;;35.60;17.58;;;2.40;99.90;;;;;;5009362;28;20439;-66
2022/01/11 07:20:42;;;;;;;37.90;18.35;;;2.40;99.90;;;;;;5002520;28;20088;-66
2022/01/11 07:23:08;;;;;;;37.72;16.90;;;2.40;99.90;;;;;;5010112;28;20038;-67
2022/01/11 07:25:35;;;;;;;42.22;18.38;;;2.30;99.90;;;;;;5009804;28;20037;-66
2022/01/11 07:28:01;;;;;;;37.35;19.17;;;2.30;99.90;;;;;;5018010;28;20034;-66
2022/01/11 07:30:27;;;;;;;34.10;18.40;;;2.30;99.90;;;;;;5010464;28;20079;-67
2022/01/11 07:32:53;;;;;;;38.97;18.55;;;2.30;99.90;;;;;;5010286;28;20022;-66
2022/01/11 07:35:18;;;;;;;40.40;18.75;;;2.30;99.90;;;;;;5009892;28;20037;-67
2022/01/11 07:37:44;;;;;;;38.25;18.92;;;2.30;99.90;;;;;;5010774;28;20374;-67
2022/01/11 07:40:12;;;;;;;36.80;17.63;;;2.40;99.90;;;;;;5013650;28;20425;-66
2022/01/11 07:42:37;;;;;;;39.80;19.13;;;2.30;99.90;;;;;;5011312;28;20044;-66
2022/01/11 07:45:04;;;;;;;35.67;17.90;;;2.40;99.90;;;;;;5012553;28;20034;-67
2022/01/11 07:47:29;;;;;;;48.97;19.10;;;2.40;99.90;;;;;;5012157;28;20034;-67
2022/01/11 07:49:55;;;;;;;44.00;18.83;;;2.40;99.90;;;;;;5015366;28;20026;-66
2022/01/11 07:52:21;;;;;;;38.58;18.38;;;2.40;99.90;;;;;;5013182;28;20018;-66
2022/01/11 07:54:47;;;;;;;36.70;17.45;;;2.40;99.90;;;;;;5013290;28;20049;-66
2022/01/11 07:57:15;;;;;;;40.78;18.45;;;2.40;99.90;;;;;;5012822;28;20037;-66
2022/01/11 07:59:41;;;;;;;40.10;18.63;;;2.40;99.90;;;;;;5012393;28;20083;-66
2022/01/11 08:02:07;;;;;;;46.88;19.05;;;2.40;99.90;;;;;;5028434;28;20482;-66
2022/01/11 08:04:33;;;;;;;38.70;18.48;;;2.30;99.90;;;;;;5011993;28;20034;-67
2022/01/11 08:07:00;;;;;;;43.35;18.23;;;2.40;99.90;;;;;;5012336;28;20551;-67
2022/01/11 08:09:26;;;;;;;45.20;20.10;;;2.40;99.90;;;;;;5012200;28;20114;-67
2022/01/11 08:11:54;;;;;;;43.75;19.60;;;2.40;99.90;;;;;;4993700;28;20030;-67
2022/01/11 08:14:21;;;;;;;38.35;19.52;;;2.40;99.90;;;;;;5012357;28;20695;-66
2022/01/11 08:16:46;;;;;;;35.33;18.13;;;2.30;99.90;;;;;;5011949;28;20406;-66
2022/01/11 08:19:12;;;;;;;37.50;17.77;;;2.40;99.90;;;;;;5012019;28;20025;-66
2022/01/11 08:21:37;;;;;;;41.28;18.08;;;2.40;99.90;;;;;;5028959;28;20037;-67
2022/01/11 08:24:04;;;;;;;36.95;17.23;;;2.40;99.90;;;;;;5020402;28;20053;-67
2022/01/11 08:26:29;;;;;;;33.55;17.77;;;2.40;99.90;;;;;;5013512;28;20026;-67
2022/01/11 08:28:55;;;;;;;35.22;17.70;;;2.40;99.90;;;;;;5011577;28;20363;-66
2022/01/11 08:31:21;;;;;;;33.78;17.17;;;2.50;99.90;;;;;;5025730;28;20471;-68
2022/01/11 08:33:47;;;;;;;31.25;16.38;;;2.50;99.90;;;;;;5010943;28;20485;-66
2022/01/11 08:36:13;;;;;;;33.22;17.10;;;2.50;99.90;;;;;;5012702;28;20116;-68
2022/01/11 08:38:39;;;;;;;35.53;17.58;;;2.50;99.90;;;;;;5011202;28;20134;-68
2022/01/11 08:41:06;;;;;;;43.55;18.13;;;2.60;99.90;;;;;;5013001;28;20026;-67
2022/01/11 08:43:32;;;;;;;36.92;17.45;;;2.50;99.90;;;;;;5012423;28;20034;-66
2022/01/11 08:45:59;;;;;;;36.05;17.23;;;2.50;99.90;;;;;;5012518;28;20029;-66
2022/01/11 08:48:24;;;;;;;34.20;16.30;;;2.60;99.90;;;;;;5014284;28;20184;-66
2022/01/11 08:50:53;;;;;;;32.40;17.10;;;2.50;99.90;;;;;;5012152;28;20501;-66
2022/01/11 08:53:20;;;;;;;36.05;17.52;;;2.50;99.90;;;;;;5012207;28;20022;-66
2022/01/11 08:55:50;;;;;;;36.80;18.15;;;2.50;99.90;;;;;;5012674;28;20037;-66
2022/01/11 08:58:20;;;;;;;37.00;16.92;;;2.60;99.90;;;;;;5011991;28;20389;-66
2022/01/11 09:00:46;;;;;;;32.78;16.40;;;2.60;99.90;;;;;;5012363;28;20022;-65
2022/01/11 09:03:12;;;;;;;42.58;17.92;;;2.50;99.90;;;;;;5011461;28;20022;-68
2022/01/11 09:05:38;;;;;;;35.88;16.55;;;2.50;99.90;;;;;;5011997;28;20080;-64
2022/01/11 09:08:04;;;;;;;29.98;16.55;;;2.50;99.90;;;;;;5012093;28;20049;-65
2022/01/11 09:10:30;;;;;;;34.75;16.30;;;2.50;99.90;;;;;;5012054;28;20022;-65
2022/01/11 09:12:55;;;;;;;34.65;16.58;;;2.50;99.90;;;;;;5012176;28;20022;-66
2022/01/11 09:15:21;;;;;;;32.20;16.75;;;2.50;99.90;;;;;;5012130;28;20044;-65
2022/01/11 09:17:47;;;;;;;31.10;16.05;;;2.50;99.90;;;;;;5012531;28;20030;-66
2022/01/11 09:20:16;;;;;;;33.45;16.45;;;2.50;99.90;;;;;;5011968;28;20382;-66
2022/01/11 09:22:42;;;;;;;34.75;17.13;;;2.50;99.90;;;;;;5010938;28;20121;-65
2022/01/11 09:25:08;;;;;;;36.08;16.38;;;2.50;99.90;;;;;;5011814;28;20112;-65
2022/01/11 09:27:34;;;;;;;33.10;15.30;;;2.50;99.90;;;;;;5011618;28;20029;-66
2022/01/11 09:30:00;;;;;;;37.47;15.68;;;2.60;99.90;;;;;;5011899;28;20021;-65
2022/01/11 09:32:26;;;;;;;31.30;15.57;;;2.60;99.90;;;;;;5011694;28;20022;-66
2022/01/11 09:34:52;;;;;;;26.15;15.43;;;2.60;99.90;;;;;;5011580;28;20026;-66
2022/01/11 09:37:18;;;;;;;27.58;14.98;;;2.60;99.90;;;;;;5011601;28;20029;-66
2022/01/11 09:39:43;;;;;;;29.52;15.43;;;2.70;99.90;;;;;;5012796;28;20057;-66
2022/01/11 09:42:10;;;;;;;32.15;15.32;;;2.70;99.90;;;;;;5011039;28;20477;-66
2022/01/11 09:44:39;;;;;;;31.75;14.70;;;2.70;99.90;;;;;;5012704;28;20115;-65
2022/01/11 09:47:07;;;;;;;30.67;15.07;;;2.80;99.90;;;;;;5011350;28;20165;-65
2022/01/11 09:49:33;;;;;;;31.75;15.30;;;2.80;99.90;;;;;;5011550;28;20026;-67
2022/01/11 09:52:02;;;;;;;27.88;14.57;;;2.80;99.90;;;;;;5011529;28;20417;-66
2022/01/11 09:54:27;;;;;;;30.73;14.38;;;2.90;99.90;;;;;;5011417;28;20028;-67
2022/01/11 09:56:53;;;;;;;32.90;15.15;;;2.90;99.90;;;;;;5011105;28;20026;-68
2022/01/11 09:59:19;;;;;;;33.17;15.50;;;2.90;99.90;;;;;;5010265;28;20444;-66
2022/01/11 10:01:44;;;;;;;32.28;15.32;;;2.90;99.90;;;;;;5010314;28;20034;-66
2022/01/11 10:04:14;;;;;;;28.95;14.10;;;3.00;99.90;;;;;;5010409;28;20030;-66
2022/01/11 10:06:42;;;;;;;30.95;14.13;;;3.00;99.90;;;;;;5007211;28;20116;-68
2022/01/11 10:09:17;;;;;;;23.75;12.20;;;3.00;99.90;;;;;;5006175;28;20112;-67
2022/01/11 10:11:45;;;;;;;24.65;12.50;;;3.00;99.90;;;;;;5010411;28;20026;-65
2022/01/11 10:14:24;;;;;;;24.75;12.77;;;3.10;99.90;;;;;;5010936;28;20017;-66
2022/01/11 10:17:11;;;;;;;24.25;12.85;;;3.10;99.90;;;;;;5011968;28;20021;-66
2022/01/11 10:19:43;;;;;;;24.10;12.23;;;3.10;99.90;;;;;;5000326;28;20026;-67
2022/01/11 10:22:12;;;;;;;24.55;12.23;;;3.10;99.90;;;;;;5000390;28;20068;-66
2022/01/11 10:24:42;;;;;;;23.85;12.60;;;3.10;99.90;;;;;;5009780;28;20080;-67
2022/01/11 10:27:25;;;;;;;24.45;11.85;;;3.20;99.90;;;;;;5009357;28;20042;-67
2022/01/11 10:29:57;;;;;;;23.58;12.05;;;3.20;99.90;;;;;;5011473;28;20488;-67
2022/01/11 10:32:36;;;;;;;22.92;11.85;;;3.20;99.90;;;;;;5010479;28;20105;-67
2022/01/11 10:35:12;;;;;;;26.92;12.45;;;3.20;99.90;;;;;;5011830;28;20076;-67
2022/01/11 10:37:43;;;;;;;24.70;11.93;;;3.30;99.90;;;;;;5008332;28;20033;-67
2022/01/11 10:40:14;;;;;;;23.80;11.30;;;3.30;99.90;;;;;;5008922;28;20033;-66
2022/01/11 10:42:55;;;;;;;25.10;11.98;;;3.30;99.90;;;;;;5009833;28;20296;-66
2022/01/11 10:45:35;;;;;;;21.88;10.95;;;3.30;99.90;;;;;;5010016;28;20120;-66
2022/01/11 10:48:07;;;;;;;21.95;11.88;;;3.40;99.90;;;;;;5011391;28;20454;-67
2022/01/11 10:50:46;;;;;;;23.92;11.30;;;3.40;99.90;;;;;;5010232;28;20113;-66
2022/01/11 10:53:48;;;;;;;18.33;10.50;;;3.40;99.90;;;;;;5010732;28;20062;-66
2022/01/11 10:56:16;;;;;;;22.70;10.90;;;3.50;99.90;;;;;;4984230;28;20574;-66
2022/01/11 10:58:42;;;;;;;20.65;11.73;;;3.50;99.90;;;;;;4999049;28;20073;-66
2022/01/11 11:01:11;;;;;;;21.40;10.73;;;3.60;99.90;;;;;;5010190;28;20037;-67
2022/01/11 11:03:37;;;;;;;20.80;11.25;;;3.60;99.90;;;;;;5009603;28;20022;-66
2022/01/11 11:06:11;;;;;;;21.83;10.77;;;3.60;99.90;;;;;;5012427;28;20030;-66
2022/01/11 11:08:47;;;;;;;19.42;10.68;;;3.70;99.90;;;;;;5006531;28;20029;-67
2022/01/11 11:11:20;;;;;;;27.17;12.35;;;3.70;99.90;;;;;;5010526;28;20026;-67
2022/01/11 11:13:48;;;;;;;19.50;11.20;;;3.70;99.90;;;;;;5026448;28;20033;-67
2022/01/11 11:16:16;;;;;;;21.92;10.52;;;3.80;99.90;;;;;;5011958;28;20025;-67
2022/01/11 11:18:42;;;;;;;21.02;11.20;;;3.80;99.90;;;;;;5013400;28;20030;-69
2022/01/11 11:21:12;;;;;;;19.50;11.52;;;3.80;99.90;;;;;;5013944;28;20037;-69
2022/01/11 11:23:38;;;;;;;23.10;12.10;;;3.80;99.90;;;;;;5013605;28;20444;-69
2022/01/11 11:26:04;;;;;;;18.50;12.02;;;3.80;99.90;;;;;;5013862;28;20030;-66
2022/01/11 11:28:30;;;;;;;19.40;10.80;;;3.90;99.90;;;;;;5013689;28;20026;-68
2022/01/11 11:30:56;;;;;;;15.80;9.88;;;3.90;99.90;;;;;;5014036;28;20037;-66
2022/01/11 11:33:24;;;;;;;20.45;10.80;;;3.90;99.90;;;;;;5013024;28;20026;-67
2022/01/11 11:35:50;;;;;;;14.25;9.32;;;3.90;99.90;;;;;;5013663;28;20061;-66
2022/01/11 11:38:25;;;;;;;19.60;10.10;;;3.90;99.90;;;;;;5012905;28;20026;-66
2022/01/11 11:40:54;;;;;;;17.02;10.30;;;4.00;99.90;;;;;;5013375;28;20083;-67
2022/01/11 11:43:21;;;;;;;16.45;9.82;;;4.00;99.90;;;;;;5012491;28;20478;-67
2022/01/11 11:45:47;;;;;;;19.88;9.70;;;4.00;99.90;;;;;;5014172;28;20030;-67
2022/01/11 11:48:16;;;;;;;20.52;10.20;;;4.00;99.90;;;;;;5009509;28;20080;-67
2022/01/11 11:50:58;;;;;;;17.02;9.30;;;4.00;99.90;;;;;;5013564;28;20552;-66
2022/01/11 11:53:29;;;;;;;17.63;10.13;;;4.10;99.90;;;;;;5013338;28;20103;-66
2022/01/11 11:56:16;;;;;;;15.17;8.83;;;4.00;99.90;;;;;;5013351;28;20376;-65
2022/01/11 11:58:47;;;;;;;16.92;9.05;;;4.00;99.90;;;;;;4998680;28;20376;-65
2022/01/11 12:01:46;;;;;;;17.38;9.80;;;4.00;99.90;;;;;;5013284;28;20217;-66
2022/01/11 12:04:21;;;;;;;14.15;8.52;;;4.00;99.90;;;;;;5005586;28;20141;-66
2022/01/11 12:06:47;;;;;;;13.77;8.55;;;4.10;99.90;;;;;;5013219;28;20121;-67
2022/01/11 12:09:20;;;;;;;15.48;8.60;;;4.10;99.90;;;;;;5012414;28;20116;-66
2022/01/11 12:11:48;;;;;;;16.15;9.00;;;4.10;99.90;;;;;;5012627;28;20036;-66
2022/01/11 12:14:34;;;;;;;14.95;8.93;;;4.10;99.90;;;;;;5013141;28;20022;-66
2022/01/11 12:17:17;;;;;;;14.73;8.88;;;4.10;99.90;;;;;;5012535;28;20041;-69
2022/01/11 12:19:46;;;;;;;14.82;9.13;;;4.10;99.90;;;;;;5012390;28;20037;-66
2022/01/11 12:22:12;;;;;;;15.35;8.40;;;4.20;99.90;;;;;;5012691;28;20112;-66
2022/01/11 12:24:46;;;;;;;12.60;8.13;;;4.20;99.90;;;;;;5029652;22;20132;-68
2022/01/11 12:27:14;;;;;;;13.40;7.10;;;4.20;99.90;;;;;;5018237;28;20036;-68
2022/01/11 12:29:56;;;;;;;10.15;6.40;;;4.20;99.90;;;;;;5016419;28;20044;-68
2022/01/11 12:32:23;;;;;;;6.85;4.47;;;4.20;99.90;;;;;;5016040;28;20428;-68
2022/01/11 12:35:05;;;;;;;7.72;5.68;;;4.20;99.90;;;;;;5009902;28;20482;-68
2022/01/11 12:37:36;;;;;;;7.97;5.47;;;4.10;99.90;;;;;;4996909;28;20717;-68
2022/01/11 12:40:12;;;;;;;9.10;5.10;;;4.10;99.90;;;;;;5023001;28;20037;-68
2022/01/11 12:42:57;;;;;;;13.60;6.88;;;4.10;99.90;;;;;;5006903;28;20033;-68
2022/01/11 12:45:48;;;;;;;10.82;6.95;;;4.10;99.90;;;;;;5007766;28;20029;-68
2022/01/11 12:48:13;;;;;;;10.85;6.88;;;4.10;99.90;;;;;;5011388;28;20037;-68